createdAt,value
2022-09-27T00:00:18.665Z,99755.47
2022-09-27T00:01:20.854Z,99754.25
2022-09-27T00:02:23.258Z,99752.28
2022-09-27T00:03:26.625Z,99753.09
2022-09-27T00:04:34.683Z,99756.94
2022-09-27T00:05:39.071Z,99749.69
2022-09-27T00:06:41.465Z,99752.25
2022-09-27T00:07:48.244Z,99761.00
2022-09-27T00:08:50.734Z,99747.25
2022-09-27T00:09:53.040Z,99754.34
2022-09-27T00:11:02.868Z,99756.25
2022-09-27T00:12:06.122Z,99758.13
2022-09-27T00:13:08.337Z,99750.31
2022-09-27T00:14:17.245Z,99759.66
2022-09-27T00:15:21.062Z,99755.25
2022-09-27T00:16:29.823Z,99759.59
2022-09-27T00:17:35.761Z,99759.44
2022-09-27T00:18:41.276Z,99761.03
2022-09-27T00:19:51.412Z,99764.22
2022-09-27T00:20:54.093Z,99759.81
2022-09-27T00:21:56.908Z,99762.72
2022-09-27T00:22:59.073Z,99762.34
2022-09-27T00:24:01.899Z,99761.19
2022-09-27T00:25:07.570Z,99758.44
2022-09-27T00:26:14.447Z,99763.44
2022-09-27T00:27:16.736Z,99762.28
2022-09-27T00:28:21.106Z,99763.88
2022-09-27T00:29:25.061Z,99754.84
2022-09-27T00:30:27.157Z,99760.41
2022-09-27T00:31:31.412Z,99756.72
2022-09-27T00:32:34.281Z,99756.00
2022-09-27T00:33:38.896Z,99753.09
2022-09-27T00:34:43.879Z,99752.66
2022-09-27T00:35:46.924Z,99758.00
2022-09-27T00:36:49.771Z,99758.75
2022-09-27T00:37:53.641Z,99765.75
2022-09-27T00:38:57.616Z,99763.03
2022-09-27T00:40:00.749Z,99755.94
2022-09-27T00:41:02.954Z,99761.78
2022-09-27T00:42:16.002Z,99763.25
2022-09-27T00:43:22.023Z,99761.72
2022-09-27T00:44:28.556Z,99758.91
2022-09-27T00:45:30.713Z,99763.25
2022-09-27T00:46:42.476Z,99767.13
2022-09-27T00:47:57.136Z,99764.75
2022-09-27T00:49:20.852Z,99765.69
2022-09-27T00:50:32.523Z,99773.06
2022-09-27T00:51:39.770Z,99762.50
2022-09-27T00:53:09.260Z,99771.81
2022-09-27T00:54:16.856Z,99772.03
2022-09-27T00:55:26.507Z,99775.91
2022-09-27T00:56:33.234Z,99770.88
2022-09-27T00:57:36.019Z,99773.91
2022-09-27T00:58:44.901Z,99777.09
2022-09-27T00:59:59.847Z,99774.78
2022-09-27T01:01:07.997Z,99777.09
2022-09-27T01:02:13.408Z,99781.00
2022-09-27T01:03:35.939Z,99776.28
2022-09-27T01:04:41.220Z,99772.84
2022-09-27T01:05:44.148Z,99772.47
2022-09-27T01:06:46.163Z,99777.97
2022-09-27T01:07:48.421Z,99772.31
2022-09-27T01:08:51.321Z,99773.59
2022-09-27T01:09:54.760Z,99772.16
2022-09-27T01:11:15.933Z,99773.75
2022-09-27T01:12:33.551Z,99770.78
2022-09-27T01:13:46.401Z,99773.50
2022-09-27T01:15:07.542Z,99771.13
2022-09-27T01:16:17.132Z,99767.94
2022-09-27T01:17:40.426Z,99763.19
2022-09-27T01:19:08.260Z,99774.44
2022-09-27T01:20:31.662Z,99779.19
2022-09-27T01:21:39.522Z,99777.31
2022-09-27T01:23:11.524Z,99783.25
2022-09-27T01:24:50.092Z,99775.47
2022-09-27T01:26:30.076Z,99780.50
2022-09-27T01:27:45.231Z,99781.47
2022-09-27T01:28:59.363Z,99780.97
2022-09-27T01:30:20.197Z,99777.47
2022-09-27T01:31:51.175Z,99777.47
2022-09-27T01:33:18.848Z,99770.41
2022-09-27T01:34:44.033Z,99773.44
2022-09-27T01:36:04.009Z,99772.72
2022-09-27T01:37:09.006Z,99766.50
2022-09-27T01:38:50.851Z,99768.91
2022-09-27T01:40:15.764Z,99762.31
2022-09-27T01:42:22.317Z,99766.16
2022-09-27T01:43:51.336Z,99758.56
2022-09-27T01:45:21.625Z,99762.63
2022-09-27T01:46:42.165Z,99765.06
2022-09-27T01:47:55.705Z,99758.00
2022-09-27T01:50:01.803Z,99762.78
2022-09-27T01:51:28.443Z,99759.66
2022-09-27T01:52:47.309Z,99761.34
2022-09-27T01:53:59.374Z,99765.22
2022-09-27T01:55:26.356Z,99760.31
2022-09-27T01:56:53.185Z,99765.66
2022-09-27T01:58:24.488Z,99761.59
2022-09-27T01:59:38.863Z,99763.81
2022-09-27T02:00:55.542Z,99758.56
2022-09-27T02:02:03.471Z,99757.78
2022-09-27T02:03:32.248Z,99753.44
2022-09-27T02:05:00.974Z,99752.53
2022-09-27T02:06:12.864Z,99753.72
2022-09-27T02:07:59.876Z,99757.34
2022-09-27T02:09:13.943Z,99760.44
2022-09-27T02:10:47.298Z,99760.53
2022-09-27T02:11:57.832Z,99759.72
2022-09-27T02:13:22.879Z,99764.63
2022-09-27T02:14:50.308Z,99760.34
2022-09-27T02:16:20.551Z,99758.84
2022-09-27T02:17:51.350Z,99762.81
2022-09-27T02:19:39.742Z,99758.94
2022-09-27T02:20:50.620Z,99761.50
2022-09-27T02:22:18.628Z,99755.94
2022-09-27T02:23:26.574Z,99758.03
2022-09-27T02:24:54.509Z,99763.69
2022-09-27T02:26:08.367Z,99766.13
2022-09-27T02:27:23.053Z,99766.91
2022-09-27T02:28:52.871Z,99765.84
2022-09-27T02:30:10.747Z,99762.13
2022-09-27T02:31:15.143Z,99772.75
2022-09-27T02:32:18.869Z,99771.06
2022-09-27T02:33:30.666Z,99763.22
2022-09-27T02:34:38.947Z,99764.16
2022-09-27T02:35:42.693Z,99762.22
2022-09-27T02:36:46.428Z,99763.81
2022-09-27T02:37:49.878Z,99764.25
2022-09-27T02:38:52.886Z,99762.75
2022-09-27T02:39:58.612Z,99760.34
2022-09-27T02:41:01.768Z,99765.84
2022-09-27T02:42:04.772Z,99771.44
2022-09-27T02:43:09.843Z,99765.50
2022-09-27T02:44:16.624Z,99770.28
2022-09-27T02:45:21.241Z,99769.56
2022-09-27T02:46:27.035Z,99768.88
2022-09-27T02:47:35.514Z,99769.75
2022-09-27T02:48:54.643Z,99774.88
2022-09-27T02:50:41.288Z,99772.78
2022-09-27T02:52:56.200Z,99774.53
2022-09-27T02:54:24.436Z,99775.63
2022-09-27T02:56:12.837Z,99779.16
2022-09-27T02:58:03.759Z,99773.66
2022-09-27T02:59:34.249Z,99781.34
2022-09-27T03:01:23.205Z,99775.16
2022-09-27T03:02:51.545Z,99785.34
2022-09-27T03:04:23.626Z,99792.31
2022-09-27T03:05:35.518Z,99782.25
2022-09-27T03:06:41.325Z,99785.25
2022-09-27T03:07:45.941Z,99787.19
2022-09-27T03:08:48.257Z,99785.25
2022-09-27T03:09:52.600Z,99780.91
2022-09-27T03:10:55.738Z,99787.28
2022-09-27T03:11:58.588Z,99792.41
2022-09-27T03:13:04.644Z,99789.75
2022-09-27T03:14:09.307Z,99786.13
2022-09-27T03:15:18.093Z,99782.69
2022-09-27T03:16:46.247Z,99781.50
2022-09-27T03:18:21.014Z,99783.47
2022-09-27T03:19:26.092Z,99786.91
2022-09-27T03:21:10.809Z,99789.75
2022-09-27T03:22:14.525Z,99781.09
2022-09-27T03:23:16.498Z,99791.63
2022-09-27T03:24:24.139Z,99783.38
2022-09-27T03:25:27.090Z,99782.59
2022-09-27T03:26:29.526Z,99795.06
2022-09-27T03:27:32.637Z,99785.69
2022-09-27T03:28:36.562Z,99791.53
2022-09-27T03:29:38.710Z,99785.75
2022-09-27T03:30:46.075Z,99791.25
2022-09-27T03:31:54.086Z,99788.09
2022-09-27T03:33:19.299Z,99782.25
2022-09-27T03:34:46.754Z,99789.75
2022-09-27T03:35:50.120Z,99783.75
2022-09-27T03:36:52.987Z,99786.41
2022-09-27T03:37:55.098Z,99792.06
2022-09-27T03:38:57.468Z,99788.09
2022-09-27T03:39:59.532Z,99795.88
2022-09-27T03:41:01.791Z,99793.91
2022-09-27T03:42:05.285Z,99791.25
2022-09-27T03:43:11.421Z,99799.84
2022-09-27T03:44:13.506Z,99788.78
2022-09-27T03:45:18.267Z,99789.41
2022-09-27T03:46:21.630Z,99793.50
2022-09-27T03:47:26.843Z,99791.44
2022-09-27T03:48:31.639Z,99787.19
2022-09-27T03:49:34.095Z,99793.41
2022-09-27T03:50:40.449Z,99793.41
2022-09-27T03:51:43.262Z,99785.50
2022-09-27T03:52:54.768Z,99785.16
2022-09-27T03:53:59.709Z,99779.41
2022-09-27T03:55:07.622Z,99785.25
2022-09-27T03:56:11.627Z,99788.00
2022-09-27T03:57:15.311Z,99791.06
2022-09-27T03:58:17.969Z,99793.56
2022-09-27T03:59:21.462Z,99791.25
2022-09-27T04:00:55.861Z,99797.56
2022-09-27T04:02:01.736Z,99789.75
2022-09-27T04:03:24.199Z,99788.88
2022-09-27T04:04:48.767Z,99794.16
2022-09-27T04:05:50.831Z,99796.22
2022-09-27T04:07:00.542Z,99794.72
2022-09-27T04:08:05.771Z,99799.47
2022-09-27T04:09:09.495Z,99787.78
2022-09-27T04:10:30.712Z,99796.63
2022-09-27T04:11:35.536Z,99791.13
2022-09-27T04:12:41.057Z,99803.34
2022-09-27T04:13:44.747Z,99808.25
2022-09-27T04:14:47.756Z,99797.19
2022-09-27T04:16:08.201Z,99796.81
2022-09-27T04:17:42.837Z,99795.22
2022-09-27T04:19:03.796Z,99799.28
2022-09-27T04:20:22.312Z,99800.97
2022-09-27T04:21:27.388Z,99796.44
2022-09-27T04:22:31.195Z,99796.16
2022-09-27T04:23:34.198Z,99805.09
2022-09-27T04:24:37.284Z,99801.94
2022-09-27T04:26:00.828Z,99796.44
2022-09-27T04:27:24.597Z,99802.22
2022-09-27T04:28:28.906Z,99804.00
2022-09-27T04:29:33.286Z,99802.59
2022-09-27T04:30:50.166Z,99800.72
2022-09-27T04:32:11.556Z,99788.34
2022-09-27T04:33:33.524Z,99783.91
2022-09-27T04:35:11.151Z,99779.66
2022-09-27T04:36:27.280Z,99774.47
2022-09-27T04:37:51.491Z,99768.97
2022-09-27T04:38:58.529Z,99765.91
2022-09-27T04:40:01.122Z,99768.31
2022-09-27T04:41:03.793Z,99763.47
2022-09-27T04:42:12.180Z,99767.97
2022-09-27T04:43:14.302Z,99766.81
2022-09-27T04:44:17.832Z,99764.00
2022-09-27T04:45:24.700Z,99759.41
2022-09-27T04:46:31.866Z,99761.44
2022-09-27T04:47:35.317Z,99769.00
2022-09-27T04:48:38.291Z,99764.28
2022-09-27T04:49:40.496Z,99762.63
2022-09-27T04:50:43.969Z,99764.03
2022-09-27T04:51:48.351Z,99764.25
2022-09-27T04:52:52.309Z,99768.00
2022-09-27T04:53:57.252Z,99767.63
2022-09-27T04:55:05.177Z,99771.06
2022-09-27T04:56:26.591Z,99767.50
2022-09-27T04:57:29.251Z,99769.81
2022-09-27T04:58:31.283Z,99770.56
2022-09-27T04:59:35.876Z,99768.66
2022-09-27T05:00:38.180Z,99767.91
2022-09-27T05:02:00.826Z,99772.94
2022-09-27T05:03:38.296Z,99778.03
2022-09-27T05:04:48.661Z,99775.06
2022-09-27T05:05:53.675Z,99778.47
2022-09-27T05:06:57.313Z,99778.00
2022-09-27T05:08:08.085Z,99775.09
2022-09-27T05:09:30.108Z,99771.16
2022-09-27T05:10:32.281Z,99772.81
2022-09-27T05:11:38.153Z,99766.38
2022-09-27T05:13:12.115Z,99759.03
2022-09-27T05:14:14.480Z,99762.91
2022-09-27T05:15:29.656Z,99760.75
2022-09-27T05:16:58.451Z,99761.31
2022-09-27T05:18:10.108Z,99762.94
2022-09-27T05:19:30.509Z,99756.28
2022-09-27T05:21:07.631Z,99761.03
2022-09-27T05:22:15.155Z,99761.94
2022-09-27T05:23:18.600Z,99757.91
2022-09-27T05:24:21.536Z,99758.69
2022-09-27T05:25:23.916Z,99756.75
2022-09-27T05:26:27.460Z,99761.13
2022-09-27T05:27:31.234Z,99760.38
2022-09-27T05:28:35.336Z,99765.16
2022-09-27T05:29:37.456Z,99761.97
2022-09-27T05:31:05.902Z,99755.25
2022-09-27T05:32:08.265Z,99766.31
2022-09-27T05:33:10.464Z,99760.78
2022-09-27T05:34:38.585Z,99758.38
2022-09-27T05:35:45.635Z,99764.28
2022-09-27T05:36:49.526Z,99757.16
2022-09-27T05:37:58.319Z,99757.91
2022-09-27T05:39:03.216Z,99756.34
2022-09-27T05:40:22.538Z,99754.72
2022-09-27T05:41:30.201Z,99759.41
2022-09-27T05:42:32.613Z,99758.59
2022-09-27T05:43:35.067Z,99752.28
2022-09-27T05:44:38.765Z,99749.06
2022-09-27T05:45:41.330Z,99750.66
2022-09-27T05:46:46.591Z,99751.13
2022-09-27T05:47:59.322Z,99753.88
2022-09-27T05:49:02.691Z,99751.06
2022-09-27T05:50:08.546Z,99751.88
2022-09-27T05:51:11.315Z,99750.72
2022-09-27T05:52:16.836Z,99761.00
2022-09-27T05:53:23.181Z,99755.84
2022-09-27T05:54:27.974Z,99760.59
2022-09-27T05:55:30.685Z,99760.22
2022-09-27T05:56:33.343Z,99758.59
2022-09-27T05:58:04.663Z,99749.81
2022-09-27T05:59:24.111Z,99750.66
2022-09-27T06:00:55.067Z,99748.31
2022-09-27T06:02:27.043Z,99749.09
2022-09-27T06:05:37.779Z,99749.50
2022-09-27T06:07:08.719Z,99747.59
2022-09-27T06:08:14.747Z,99740.50
2022-09-27T06:09:21.113Z,99742.50
2022-09-27T06:10:25.208Z,99741.28
2022-09-27T06:11:27.946Z,99742.13
2022-09-27T06:12:31.222Z,99735.78
2022-09-27T06:13:34.820Z,99734.16
2022-09-27T06:14:39.914Z,99735.09
2022-09-27T06:15:47.543Z,99733.25
2022-09-27T06:16:49.646Z,99733.78
2022-09-27T06:17:54.959Z,99737.94
2022-09-27T06:18:58.342Z,99731.75
2022-09-27T06:20:01.346Z,99739.22
2022-09-27T06:21:07.870Z,99735.75
2022-09-27T06:22:10.764Z,99738.41
2022-09-27T06:23:24.143Z,99741.75
2022-09-27T06:24:26.637Z,99731.78
2022-09-27T06:25:29.785Z,99741.31
2022-09-27T06:26:58.424Z,99738.25
2022-09-27T06:28:24.024Z,99738.84
2022-09-27T06:29:35.340Z,99738.16
2022-09-27T06:30:43.493Z,99732.16
2022-09-27T06:31:58.084Z,99741.59
2022-09-27T06:33:11.817Z,99731.28
2022-09-27T06:34:19.645Z,99734.19
2022-09-27T06:35:25.386Z,99733.09
2022-09-27T06:36:27.894Z,99731.09
2022-09-27T06:37:30.026Z,99731.84
2022-09-27T06:38:33.129Z,99736.72
2022-09-27T06:39:56.680Z,99737.28
2022-09-27T06:41:33.912Z,99740.94
2022-09-27T06:42:40.683Z,99725.13
2022-09-27T06:43:52.580Z,99727.69
2022-09-27T06:45:20.494Z,99728.06
2022-09-27T06:46:53.121Z,99727.50
2022-09-27T06:48:02.552Z,99731.56
2022-09-27T06:49:15.194Z,99729.22
2022-09-27T06:50:17.788Z,99733.66
2022-09-27T06:51:20.836Z,99735.84
2022-09-27T06:52:24.462Z,99730.25
2022-09-27T06:53:27.066Z,99733.78
2022-09-27T06:54:29.334Z,99733.97
2022-09-27T06:55:31.976Z,99732.16
2022-09-27T06:56:34.173Z,99733.66
2022-09-27T06:57:55.453Z,99728.47
2022-09-27T06:59:16.033Z,99739.28
2022-09-27T07:00:29.987Z,99731.91
2022-09-27T07:01:52.741Z,99734.22
2022-09-27T07:03:04.349Z,99732.81
2022-09-27T07:04:26.191Z,99727.63
2022-09-27T07:06:01.750Z,99733.97
2022-09-27T07:07:17.304Z,99740.84
2022-09-27T07:08:23.514Z,99733.56
2022-09-27T07:09:29.324Z,99724.22
2022-09-27T07:10:35.488Z,99732.97
2022-09-27T07:11:37.727Z,99724.13
2022-09-27T07:12:40.043Z,99730.94
2022-09-27T07:13:43.796Z,99730.41
2022-09-27T07:14:49.083Z,99723.78
2022-09-27T07:15:56.294Z,99723.34
2022-09-27T07:16:58.632Z,99729.06
2022-09-27T07:18:03.275Z,99729.59
2022-09-27T07:19:07.877Z,99727.59
2022-09-27T07:20:10.364Z,99728.59
2022-09-27T07:21:12.811Z,99730.69
2022-09-27T07:22:15.151Z,99727.38
2022-09-27T07:23:20.798Z,99729.06
2022-09-27T07:24:24.770Z,99728.59
2022-09-27T07:25:27.297Z,99722.28
2022-09-27T07:26:29.980Z,99732.97
2022-09-27T07:27:34.148Z,99725.38
2022-09-27T07:28:37.819Z,99733.72
2022-09-27T07:29:40.049Z,99726.03
2022-09-27T07:30:42.823Z,99732.16
2022-09-27T07:31:45.322Z,99724.38
2022-09-27T07:32:48.354Z,99730.75
2022-09-27T07:33:50.850Z,99735.06
2022-09-27T07:34:53.188Z,99726.84
2022-09-27T07:35:56.686Z,99728.66
2022-09-27T07:37:05.789Z,99731.59
2022-09-27T07:38:14.156Z,99727.25
2022-09-27T07:39:17.575Z,99726.00
2022-09-27T07:40:20.388Z,99730.16
2022-09-27T07:41:22.483Z,99731.56
2022-09-27T07:42:26.576Z,99730.94
2022-09-27T07:43:28.870Z,99726.66
2022-09-27T07:44:31.225Z,99730.00
2022-09-27T07:45:51.850Z,99737.00
2022-09-27T07:47:08.659Z,99728.78
2022-09-27T07:48:29.244Z,99732.16
2022-09-27T07:49:36.026Z,99735.31
2022-09-27T07:51:08.681Z,99733.56
2022-09-27T07:52:23.541Z,99741.06
2022-09-27T07:53:45.985Z,99723.16
2022-09-27T07:55:07.551Z,99724.81
2022-09-27T07:56:25.253Z,99726.22
2022-09-27T07:57:27.333Z,99733.38
2022-09-27T07:58:32.523Z,99736.34
2022-09-27T07:59:40.222Z,99719.00
2022-09-27T08:00:44.249Z,99731.34
2022-09-27T08:01:46.815Z,99724.38
2022-09-27T08:02:48.998Z,99730.44
2022-09-27T08:03:51.099Z,99724.94
2022-09-27T08:04:55.478Z,99730.97
2022-09-27T08:06:03.437Z,99730.38
2022-09-27T08:07:05.999Z,99736.03
2022-09-27T08:08:08.439Z,99736.47
2022-09-27T08:09:10.606Z,99728.16
2022-09-27T08:10:15.807Z,99730.78
2022-09-27T08:11:22.467Z,99730.66
2022-09-27T08:12:26.466Z,99732.97
2022-09-27T08:13:29.775Z,99729.44
2022-09-27T08:14:32.299Z,99728.41
2022-09-27T08:15:41.424Z,99729.16
2022-09-27T08:16:44.685Z,99730.19
2022-09-27T08:17:50.916Z,99729.34
2022-09-27T08:19:01.639Z,99726.06
2022-09-27T08:20:34.491Z,99722.50
2022-09-27T08:21:42.724Z,99721.72
2022-09-27T08:22:58.273Z,99718.72
2022-09-27T08:24:09.263Z,99728.31
2022-09-27T08:25:30.684Z,99727.03
2022-09-27T08:26:41.756Z,99729.16
2022-09-27T08:27:57.880Z,99717.22
2022-09-27T08:29:15.507Z,99719.56
2022-09-27T08:30:25.651Z,99724.25
2022-09-27T08:31:29.094Z,99716.19
2022-09-27T08:32:33.005Z,99714.69
2022-09-27T08:33:41.211Z,99719.59
2022-09-27T08:34:44.586Z,99717.97
2022-09-27T08:35:46.754Z,99715.53
2022-09-27T08:36:49.265Z,99715.31
2022-09-27T08:38:02.076Z,99714.50
2022-09-27T08:39:05.538Z,99710.13
2022-09-27T08:40:17.908Z,99717.41
2022-09-27T08:41:50.918Z,99714.44
2022-09-27T08:43:25.816Z,99710.44
2022-09-27T08:44:54.429Z,99716.13
2022-09-27T08:46:23.954Z,99713.03
2022-09-27T08:47:32.871Z,99714.72
2022-09-27T08:48:40.770Z,99714.13
2022-09-27T08:50:20.330Z,99703.28
2022-09-27T08:51:29.297Z,99711.34
2022-09-27T08:52:44.853Z,99717.97
2022-09-27T08:54:01.040Z,99722.22
2022-09-27T08:55:10.392Z,99721.66
2022-09-27T08:56:16.142Z,99713.50
2022-09-27T08:57:25.472Z,99714.66
2022-09-27T08:58:37.277Z,99720.31
2022-09-27T08:59:54.737Z,99705.16
2022-09-27T09:01:00.827Z,99712.69
2022-09-27T09:02:17.890Z,99720.16
2022-09-27T09:03:27.668Z,99715.44
2022-09-27T09:04:44.069Z,99714.38
2022-09-27T09:06:12.414Z,99713.59
2022-09-27T09:07:21.832Z,99709.09
2022-09-27T09:08:50.732Z,99715.13
2022-09-27T09:10:37.805Z,99716.38
2022-09-27T09:12:11.373Z,99705.66
2022-09-27T09:13:34.716Z,99719.28
2022-09-27T09:15:01.521Z,99723.19
2022-09-27T09:16:03.689Z,99722.72
2022-09-27T09:17:20.364Z,99718.06
2022-09-27T09:19:09.612Z,99714.84
2022-09-27T09:20:41.072Z,99719.66
2022-09-27T09:22:03.277Z,99711.31
2022-09-27T09:23:40.717Z,99716.44
2022-09-27T09:24:57.747Z,99724.44
2022-09-27T09:26:33.040Z,99718.16
2022-09-27T09:27:48.450Z,99717.34
2022-09-27T09:29:02.784Z,99717.72
2022-09-27T09:30:24.655Z,99714.50
2022-09-27T09:32:19.428Z,99713.19
2022-09-27T09:33:23.683Z,99713.53
2022-09-27T09:34:36.293Z,99707.94
2022-09-27T09:35:43.942Z,99709.78
2022-09-27T09:37:31.610Z,99710.69
2022-09-27T09:38:49.341Z,99705.50
2022-09-27T09:39:56.048Z,99709.66
2022-09-27T09:41:04.758Z,99705.63
2022-09-27T09:42:39.979Z,99708.44
2022-09-27T09:44:05.971Z,99710.06
2022-09-27T09:45:36.530Z,99701.38
2022-09-27T09:46:46.042Z,99697.81
2022-09-27T09:47:58.344Z,99707.66
2022-09-27T09:49:27.012Z,99706.13
2022-09-27T09:50:36.215Z,99706.53
2022-09-27T09:51:47.894Z,99702.56
2022-09-27T09:52:56.938Z,99709.34
2022-09-27T09:54:08.673Z,99705.38
2022-09-27T09:55:23.102Z,99704.97
2022-09-27T09:56:33.533Z,99714.09
2022-09-27T09:57:49.467Z,99702.16
2022-09-27T09:59:11.642Z,99703.75
2022-09-27T10:00:19.447Z,99699.00
2022-09-27T10:01:33.792Z,99698.94
2022-09-27T10:02:42.979Z,99689.88
2022-09-27T10:03:48.923Z,99698.63
2022-09-27T10:04:51.363Z,99699.44
2022-09-27T10:05:53.452Z,99700.75
2022-09-27T10:06:59.965Z,99698.03
2022-09-27T10:08:11.338Z,99688.84
2022-09-27T10:09:16.838Z,99703.53
2022-09-27T10:10:29.092Z,99695.19
2022-09-27T10:12:06.461Z,99699.97
2022-09-27T10:13:20.387Z,99711.03
2022-09-27T10:14:28.599Z,99693.59
2022-09-27T10:15:36.511Z,99696.38
2022-09-27T10:16:42.842Z,99703.16
2022-09-27T10:17:50.634Z,99696.44
2022-09-27T10:18:59.417Z,99696.03
2022-09-27T10:20:03.057Z,99693.63
2022-09-27T10:21:26.929Z,99696.41
2022-09-27T10:22:38.129Z,99697.19
2022-09-27T10:24:06.551Z,99693.22
2022-09-27T10:25:28.095Z,99695.19
2022-09-27T10:26:43.631Z,99701.53
2022-09-27T10:27:48.989Z,99688.06
2022-09-27T10:28:56.608Z,99698.41
2022-09-27T10:30:25.371Z,99694.47
2022-09-27T10:31:37.569Z,99696.88
2022-09-27T10:32:57.186Z,99695.25
2022-09-27T10:34:25.550Z,99691.72
2022-09-27T10:35:35.364Z,99696.09
2022-09-27T10:36:38.884Z,99697.28
2022-09-27T10:37:43.542Z,99693.72
2022-09-27T10:38:57.053Z,99690.56
2022-09-27T10:40:38.452Z,99686.56
2022-09-27T10:41:43.812Z,99673.84
2022-09-27T10:42:52.930Z,99671.03
2022-09-27T10:44:32.883Z,99677.44
2022-09-27T10:45:47.805Z,99662.75
2022-09-27T10:47:05.781Z,99673.81
2022-09-27T10:48:28.254Z,99669.47
2022-09-27T10:49:37.567Z,99670.66
2022-09-27T10:51:03.980Z,99669.91
2022-09-27T10:52:19.260Z,99665.88
2022-09-27T10:53:22.777Z,99678.50
2022-09-27T10:54:40.131Z,99676.03
2022-09-27T10:55:46.930Z,99676.06
2022-09-27T10:56:57.291Z,99666.50
2022-09-27T10:58:01.891Z,99672.47
2022-09-27T10:59:06.624Z,99674.00
2022-09-27T11:00:26.295Z,99669.69
2022-09-27T11:01:51.231Z,99668.56
2022-09-27T11:03:16.679Z,99668.91
2022-09-27T11:04:27.176Z,99664.13
2022-09-27T11:05:36.577Z,99659.28
2022-09-27T11:06:39.457Z,99660.03
2022-09-27T11:07:53.657Z,99652.13
2022-09-27T11:09:24.427Z,99664.00
2022-09-27T11:10:37.699Z,99656.09
2022-09-27T11:11:41.167Z,99657.69
2022-09-27T11:12:43.267Z,99656.84
2022-09-27T11:14:08.243Z,99655.31
2022-09-27T11:15:19.309Z,99656.00
2022-09-27T11:16:49.604Z,99654.06
2022-09-27T11:18:11.383Z,99650.44
2022-09-27T11:19:15.574Z,99649.19
2022-09-27T11:20:40.163Z,99646.31
2022-09-27T11:22:08.652Z,99644.59
2022-09-27T11:23:23.550Z,99646.09
2022-09-27T11:24:57.433Z,99650.38
2022-09-27T11:26:41.429Z,99644.47
2022-09-27T11:28:34.104Z,99637.75
2022-09-27T11:29:46.687Z,99635.66
2022-09-27T11:31:11.052Z,99631.00
2022-09-27T11:32:49.305Z,99630.59
2022-09-27T11:33:55.921Z,99633.94
2022-09-27T11:35:23.165Z,99634.59
2022-09-27T11:36:31.951Z,99629.03
2022-09-27T11:38:29.589Z,99629.03
2022-09-27T11:40:19.832Z,99627.38
2022-09-27T11:41:34.074Z,99623.56
2022-09-27T11:43:00.888Z,99633.97
2022-09-27T11:44:18.216Z,99626.97
2022-09-27T11:46:14.347Z,99626.97
2022-09-27T11:47:16.287Z,99622.66
2022-09-27T11:48:27.251Z,99627.84
2022-09-27T11:50:03.675Z,99621.53
2022-09-27T11:51:16.346Z,99619.28
2022-09-27T11:52:29.961Z,99613.72
2022-09-27T11:53:51.572Z,99613.00
2022-09-27T11:55:15.534Z,99613.78
2022-09-27T11:56:41.847Z,99613.38
2022-09-27T11:58:01.101Z,99622.88
2022-09-27T11:59:26.359Z,99623.31
2022-09-27T12:01:02.979Z,99619.69
2022-09-27T12:02:30.930Z,99617.44
2022-09-27T12:04:16.841Z,99621.81
2022-09-27T12:05:43.758Z,99619.44
2022-09-27T12:07:04.655Z,99626.53
2022-09-27T12:08:45.070Z,99620.19
2022-09-27T12:10:00.536Z,99609.13
2022-09-27T12:11:37.646Z,99615.44
2022-09-27T12:12:45.442Z,99620.28
2022-09-27T12:13:53.362Z,99615.59
2022-09-27T12:15:06.471Z,99615.94
2022-09-27T12:16:12.719Z,99612.69
2022-09-27T12:17:25.619Z,99607.59
2022-09-27T12:18:39.278Z,99605.22
2022-09-27T12:19:58.023Z,99600.06
2022-09-27T12:21:18.018Z,99593.31
2022-09-27T12:22:53.970Z,99601.22
2022-09-27T12:23:54.855Z,99602.06
2022-09-27T12:25:26.699Z,99598.75
2022-09-27T12:26:44.483Z,99600.75
2022-09-27T12:27:58.635Z,99596.69
2022-09-27T12:29:14.638Z,99592.75
2022-09-27T12:30:17.396Z,99591.88
2022-09-27T12:31:51.999Z,99593.53
2022-09-27T12:33:22.711Z,99588.00
2022-09-27T12:34:36.911Z,99588.78
2022-09-27T12:35:55.817Z,99585.16
2022-09-27T12:37:09.452Z,99589.94
2022-09-27T12:38:13.909Z,99582.75
2022-09-27T12:39:30.585Z,99590.03
2022-09-27T12:40:52.476Z,99593.66
2022-09-27T12:42:24.277Z,99587.22
2022-09-27T12:43:29.555Z,99594.44
2022-09-27T12:44:50.798Z,99590.06
2022-09-27T12:46:19.731Z,99590.88
2022-09-27T12:47:23.276Z,99587.66
2022-09-27T12:48:50.257Z,99590.03
2022-09-27T12:50:11.054Z,99592.75
2022-09-27T12:51:19.037Z,99594.34
2022-09-27T12:52:29.162Z,99595.91
2022-09-27T12:54:02.744Z,99585.97
2022-09-27T12:55:55.538Z,99586.00
2022-09-27T12:57:13.582Z,99589.13
2022-09-27T12:58:46.433Z,99584.41
2022-09-27T13:00:21.395Z,99585.25
2022-09-27T13:01:54.074Z,99585.22
2022-09-27T13:03:25.775Z,99588.44
2022-09-27T13:04:39.169Z,99588.44
2022-09-27T13:05:59.210Z,99591.66
2022-09-27T13:07:42.668Z,99584.91
2022-09-27T13:09:28.330Z,99584.03
2022-09-27T13:10:54.942Z,99581.72
2022-09-27T13:12:13.429Z,99585.31
2022-09-27T13:13:22.680Z,99586.44
2022-09-27T13:14:28.420Z,99590.78
2022-09-27T13:15:36.663Z,99590.75
2022-09-27T13:16:44.178Z,99593.53
2022-09-27T13:17:47.402Z,99589.94
2022-09-27T13:19:01.974Z,99587.66
2022-09-27T13:20:35.690Z,99581.25
2022-09-27T13:21:47.111Z,99577.25
2022-09-27T13:22:57.765Z,99586.72
2022-09-27T13:24:41.594Z,99589.91
2022-09-27T13:25:56.773Z,99581.84
2022-09-27T13:27:30.201Z,99579.88
2022-09-27T13:28:49.072Z,99577.13
2022-09-27T13:30:11.719Z,99573.22
2022-09-27T13:32:06.411Z,99579.56
2022-09-27T13:33:43.641Z,99571.31
2022-09-27T13:34:56.949Z,99570.13
2022-09-27T13:36:25.166Z,99576.41
2022-09-27T13:37:38.009Z,99585.94
2022-09-27T13:39:12.573Z,99576.41
2022-09-27T13:40:38.881Z,99573.16
2022-09-27T13:42:34.269Z,99579.56
2022-09-27T13:43:59.777Z,99573.22
2022-09-27T13:45:28.300Z,99569.66
2022-09-27T13:46:35.242Z,99565.41
2022-09-27T13:47:44.568Z,99568.56
2022-09-27T13:49:19.311Z,99577.28
2022-09-27T13:50:56.527Z,99574.56
2022-09-27T13:52:05.846Z,99570.16
2022-09-27T13:53:29.330Z,99569.41
2022-09-27T13:54:34.467Z,99559.19
2022-09-27T13:55:47.554Z,99568.25
2022-09-27T13:57:40.624Z,99566.34
2022-09-27T13:58:51.863Z,99559.09
2022-09-27T14:00:18.494Z,99558.72
2022-09-27T14:01:38.568Z,99563.91
2022-09-27T14:03:02.919Z,99561.81
2022-09-27T14:04:41.772Z,99564.75
2022-09-27T14:05:58.236Z,99569.97
2022-09-27T14:07:03.513Z,99567.56
2022-09-27T14:08:13.357Z,99570.66
2022-09-27T14:09:45.263Z,99560.00
2022-09-27T14:10:58.237Z,99552.47
2022-09-27T14:12:22.469Z,99564.41
2022-09-27T14:13:27.600Z,99558.47
2022-09-27T14:14:43.013Z,99559.66
2022-09-27T14:15:47.124Z,99558.47
2022-09-27T14:16:49.609Z,99557.22
2022-09-27T14:17:53.593Z,99560.44
2022-09-27T14:18:58.467Z,99560.09
2022-09-27T14:20:37.379Z,99556.81
2022-09-27T14:21:41.959Z,99569.19
2022-09-27T14:23:04.692Z,99561.66
2022-09-27T14:24:26.907Z,99558.47
2022-09-27T14:25:31.034Z,99566.88
2022-09-27T14:26:33.151Z,99564.06
2022-09-27T14:27:37.774Z,99553.34
2022-09-27T14:28:57.627Z,99554.59
2022-09-27T14:30:17.704Z,99560.97
2022-09-27T14:31:25.800Z,99562.59
2022-09-27T14:32:55.851Z,99561.03
2022-09-27T14:34:11.156Z,99559.47
2022-09-27T14:35:36.383Z,99559.50
2022-09-27T14:36:58.077Z,99560.28